Terminal Aerodrome Forecast
Issued by NWS

Home | Current Version | Previous Version | Text Only | Print | Product List | Glossary On
Versions: 1 2 3 4 5 6 7 8 9 10 11 12 13 14 15 16 17 18 19
000
FTUS41 KGYX 211720
TAFPSM
TAF
KPSM 211720Z 2118/2218 08007KT 6SM -RA BR OVC008
     FM220000 03007G15KT 3SM RA BR OVC004
     FM220900 01015G25KT 2SM -RA BR OVC003=

USA.gov is the U.S. government's official web portal to all federal, state and local government web resources and services.